Time;durP1;ratioP1;P1;durP2;ratioP2;P2;SDS_P1;SDS_P2;PMS_P1;PMS_P2;Temp;Humidity;BMP_temperature;BMP_pressure;BME280_temperature;BME280_humidity;BME280_pressure;Samples;Min_cycle;Max_cycle;Signal;HPM_P1;HPM_P2
2023/10/16 00:00:29;;;;;;;2.65;2.45;;;;;;;1.27;100.00;96463.66;1030981;28;20061;-73
2023/10/16 00:00:53;;;;;;;0.20;0.20;;;;;;;1.20;100.00;96459.41;1028342;28;20055;-73
2023/10/16 00:01:27;;;;;;;0.20;0.20;;;;;;;1.25;100.00;96460.47;1023470;28;20035;-74
2023/10/16 00:01:57;;;;;;;0.75;0.73;;;;;;;1.27;100.00;96460.25;1026441;28;20041;-74
2023/10/16 00:02:28;;;;;;;0.50;0.50;;;;;;;1.30;100.00;96459.91;1029910;28;20647;-73
2023/10/16 00:03:01;;;;;;;0.20;0.20;;;;;;;1.25;100.00;96470.00;1030504;28;20027;-74
2023/10/16 00:03:32;;;;;;;0.00;0.00;;;;;;;1.22;100.00;96460.03;1026058;28;20026;-74
2023/10/16 00:04:04;;;;;;;0.28;0.28;;;;;;;1.21;100.00;96461.00;1022834;29;20360;-74
2023/10/16 00:04:35;;;;;;;1.08;0.80;;;;;;;1.21;100.00;96463.59;1019121;29;20032;-73
2023/10/16 00:05:08;;;;;;;0.47;0.47;;;;;;;1.20;100.00;96459.41;1023184;29;20263;-74
2023/10/16 00:05:45;;;;;;;0.30;0.30;;;;;;;1.14;100.00;96451.44;1019210;29;20446;-74
2023/10/16 00:06:16;;;;;;;0.76;0.76;;;;;;;1.17;100.00;96461.41;1016335;29;20673;-73
2023/10/16 00:06:49;;;;;;;0.30;0.30;;;;;;;1.09;100.00;96446.00;1015454;29;20497;-73
2023/10/16 00:07:22;;;;;;;0.50;0.50;;;;;;;1.14;100.00;96455.78;1015249;29;20372;-74
2023/10/16 00:07:53;;;;;;;0.30;0.30;;;;;;;1.11;100.00;96456.97;1016866;29;20268;-74
2023/10/16 00:08:24;;;;;;;0.30;0.30;;;;;;;1.13;100.00;96454.19;1018511;29;20701;-73
2023/10/16 00:09:00;;;;;;;0.08;0.08;;;;;;;1.10;100.00;96446.78;1012045;29;20269;-73
2023/10/16 00:09:34;;;;;;;0.10;0.10;;;;;;;1.14;100.00;96458.34;1011635;29;20647;-74
2023/10/16 00:10:11;;;;;;;0.40;0.40;;;;;;;1.13;100.00;96457.56;1012198;29;20033;-74
2023/10/16 00:11:03;;;;;;;0.10;0.10;;;;;;;1.11;100.00;96456.97;1023440;28;20852;-74
2023/10/16 00:11:37;;;;;;;0.43;0.43;;;;;;;1.08;100.00;96461.72;1029265;28;20277;-73
2023/10/16 00:12:08;;;;;;;1.42;0.70;;;;;;;1.04;100.00;96445.78;1019248;29;20256;-74
2023/10/16 00:12:38;;;;;;;0.20;0.20;;;;;;;1.04;100.00;96450.13;1011279;29;20277;-74
2023/10/16 00:13:11;;;;;;;0.15;0.15;;;;;;;1.06;100.00;96463.66;1015114;29;20076;-74
2023/10/16 00:13:44;;;;;;;0.40;0.40;;;;;;;1.05;100.00;96462.88;1016101;29;20118;-74
2023/10/16 00:14:23;;;;;;;0.65;0.45;;;;;;;1.08;100.00;96454.75;1019647;29;20280;-74
2023/10/16 00:14:54;;;;;;;0.00;0.00;;;;;;;0.98;100.00;96454.25;1024243;28;20267;-74
2023/10/16 00:15:26;;;;;;;0.00;0.00;;;;;;;1.06;100.00;96463.66;1027182;28;20212;-74
2023/10/16 00:16:02;;;;;;;1.25;0.55;;;;;;;1.00;100.00;96454.84;1025831;28;20281;-74
2023/10/16 00:16:33;;;;;;;0.10;0.10;;;;;;;1.00;100.00;96460.03;1027409;28;20629;-74
2023/10/16 00:17:09;;;;;;;0.00;0.00;;;;;;;0.99;100.00;96462.81;1025621;28;20027;-73
2023/10/16 00:17:39;;;;;;;0.10;0.10;;;;;;;0.98;100.00;96467.19;1023435;29;20531;-74
2023/10/16 00:18:17;;;;;;;0.52;0.52;;;;;;;0.96;100.00;96466.53;1018707;29;20071;-74
2023/10/16 00:18:50;;;;;;;0.30;0.30;;;;;;;0.94;100.00;96455.63;1017333;29;20042;-74
2023/10/16 00:19:23;;;;;;;0.47;0.47;;;;;;;0.96;100.00;96463.97;1011167;29;20356;-74
2023/10/16 00:19:54;;;;;;;0.24;0.24;;;;;;;0.95;100.00;96462.38;1012670;29;20306;-74
2023/10/16 00:20:26;;;;;;;0.47;0.47;;;;;;;0.91;100.00;96461.94;1017074;29;20044;-74
2023/10/16 00:20:57;;;;;;;0.00;0.00;;;;;;;0.91;100.00;96468.91;1024062;28;20035;-74
2023/10/16 00:21:30;;;;;;;0.60;0.60;;;;;;;0.89;100.00;96452.78;1027336;28;20038;-74
2023/10/16 00:22:01;;;;;;;1.16;0.78;;;;;;;0.85;100.00;96454.13;1026459;28;20255;-74
2023/10/16 00:22:31;;;;;;;0.22;0.22;;;;;;;0.89;100.00;96460.53;1021814;29;20039;-74
2023/10/16 00:23:05;;;;;;;0.20;0.20;;;;;;;0.89;100.00;96457.94;1015375;29;20095;-72
2023/10/16 00:23:39;;;;;;;0.22;0.22;;;;;;;0.85;100.00;96462.66;1018839;29;20614;-74
2023/10/16 00:24:10;;;;;;;0.05;0.05;;;;;;;0.89;100.00;96456.16;1018452;29;20774;-74
2023/10/16 00:24:45;;;;;;;0.10;0.10;;;;;;;0.83;100.00;96449.13;1016968;29;20367;-73
2023/10/16 00:25:18;;;;;;;0.22;0.22;;;;;;;0.87;100.00;96459.88;1025790;28;20286;-74
2023/10/16 00:25:50;;;;;;;0.38;0.38;;;;;;;0.88;100.00;96462.31;1025759;28;20086;-74
2023/10/16 00:26:21;;;;;;;0.10;0.10;;;;;;;0.91;100.00;96461.16;1024074;28;20019;-74
2023/10/16 00:26:51;;;;;;;0.10;0.10;;;;;;;0.91;100.00;96459.34;1024610;28;20286;-74
2023/10/16 00:27:22;;;;;;;0.05;0.05;;;;;;;0.89;100.00;96460.53;1023005;29;20011;-74
2023/10/16 00:27:52;;;;;;;0.73;0.73;;;;;;;0.92;100.00;96462.75;1023073;28;20311;-73
2023/10/16 00:28:23;;;;;;;0.95;0.85;;;;;;;0.86;100.00;96450.56;1022951;29;20039;-73
2023/10/16 00:29:17;;;;;;;0.30;0.30;;;;;;;0.84;100.00;96449.91;1014940;29;20032;-74
2023/10/16 00:29:48;;;;;;;0.06;0.06;;;;;;;0.79;100.00;96447.91;1022485;29;20057;-73
2023/10/16 00:30:18;;;;;;;2.26;0.56;;;;;;;0.89;100.00;96460.53;1018804;29;20042;-74
2023/10/16 00:30:49;;;;;;;0.60;0.60;;;;;;;0.85;100.00;96454.13;1022916;29;20489;-75
2023/10/16 00:31:22;;;;;;;0.10;0.10;;;;;;;0.88;100.00;96461.50;1015420;29;20028;-73
2023/10/16 00:31:58;;;;;;;0.64;0.62;;;;;;;0.89;100.00;96460.53;1019243;29;20084;-74
2023/10/16 00:32:30;;;;;;;0.10;0.10;;;;;;;0.90;100.00;96456.94;1017367;29;20038;-73
2023/10/16 00:33:01;;;;;;;0.22;0.16;;;;;;;0.84;100.00;96450.75;1013628;29;20116;-74
2023/10/16 00:33:33;;;;;;;0.20;0.20;;;;;;;0.91;100.00;96461.16;1008112;29;20032;-73
2023/10/16 00:34:04;;;;;;;0.00;0.00;;;;;;;0.84;100.00;96444.75;1016996;29;20067;-74
2023/10/16 00:34:35;;;;;;;0.20;0.20;;;;;;;0.81;100.00;96450.31;1018889;29;20135;-74
2023/10/16 00:35:08;;;;;;;0.15;0.15;;;;;;;0.78;100.00;96445.50;1019691;29;20504;-73
2023/10/16 00:35:39;;;;;;;0.62;0.44;;;;;;;0.78;100.00;96446.31;1021805;29;20039;-74
2023/10/16 00:36:09;;;;;;;2.20;0.30;;;;;;;0.83;100.00;96454.28;1019118;29;20570;-74
2023/10/16 00:36:40;;;;;;;0.28;0.28;;;;;;;0.80;100.00;96448.69;1019260;29;20027;-74
2023/10/16 00:37:10;;;;;;;0.25;0.25;;;;;;;0.78;100.00;96456.63;1018620;29;20031;-74
2023/10/16 00:37:41;;;;;;;0.57;0.35;;;;;;;0.78;100.00;96459.22;1015172;29;20039;-74
2023/10/16 00:38:14;;;;;;;0.63;0.63;;;;;;;0.76;100.00;96455.22;1015515;29;20032;-74
2023/10/16 00:38:51;;;;;;;0.36;0.28;;;;;;;0.79;100.00;96454.84;1022772;28;20046;-73
2023/10/16 00:39:26;;;;;;;0.20;0.20;;;;;;;0.79;100.00;96452.28;1020541;29;20039;-74
2023/10/16 00:39:56;;;;;;;0.22;0.22;;;;;;;0.78;100.00;96458.44;1023000;29;20046;-74
2023/10/16 00:40:31;;;;;;;0.10;0.10;;;;;;;0.78;100.00;96454.06;1021464;29;20035;-74
2023/10/16 00:41:46;;;;;;;0.12;0.12;;;;;;;0.76;100.00;96443.09;1020960;29;20043;-75
2023/10/16 00:42:16;;;;;;;0.82;0.82;;;;;;;0.81;100.00;96445.16;1022914;29;20063;-74
2023/10/16 00:42:48;;;;;;;0.10;0.10;;;;;;;0.84;100.00;96449.91;1022388;29;20042;-74
2023/10/16 00:43:22;;;;;;;0.30;0.30;;;;;;;0.83;100.00;96443.16;1019439;29;20073;-74
2023/10/16 00:43:52;;;;;;;0.28;0.28;;;;;;;0.87;100.00;96449.56;1024294;28;20267;-73
2023/10/16 00:44:33;;;;;;;0.00;0.00;;;;;;;0.85;100.00;96444.59;1022331;29;20443;-74
2023/10/16 00:45:04;;;;;;;0.25;0.25;;;;;;;0.84;100.00;96444.75;1020815;29;20024;-74
2023/10/16 00:45:59;;;;;;;0.10;0.10;;;;;;;0.81;100.00;96445.16;1020512;29;20914;-74
2023/10/16 00:46:30;;;;;;;3.02;1.34;;;;;;;0.84;100.00;96444.75;1023841;28;20039;-74
2023/10/16 00:47:04;;;;;;;0.28;0.28;;;;;;;0.83;100.00;96443.16;1018933;29;20134;-73
2023/10/16 00:47:35;;;;;;;0.10;0.10;;;;;;;0.75;100.00;96431.19;1022887;29;20344;-74
2023/10/16 00:48:08;;;;;;;0.00;0.00;;;;;;;0.80;100.00;96443.53;1018999;29;20417;-74
2023/10/16 00:48:42;;;;;;;0.38;0.38;;;;;;;0.72;100.00;96435.91;1022958;29;20035;-74
2023/10/16 00:49:13;;;;;;;0.30;0.30;;;;;;;0.73;100.00;96443.47;1018728;29;20078;-74
2023/10/16 00:49:43;;;;;;;0.30;0.30;;;;;;;0.75;100.00;96435.53;1011825;29;20029;-74
2023/10/16 00:50:14;;;;;;;0.60;0.32;;;;;;;0.72;100.00;96433.31;1008142;29;20032;-73
2023/10/16 00:50:48;;;;;;;0.10;0.10;;;;;;;0.71;100.00;96429.94;1015419;29;20035;-74
2023/10/16 00:51:21;;;;;;;0.32;0.32;;;;;;;0.74;100.00;96433.94;1023029;29;20027;-74
2023/10/16 00:51:51;;;;;;;0.20;0.20;;;;;;;0.76;100.00;96437.94;1022980;29;20070;-73
2023/10/16 00:52:22;;;;;;;0.10;0.10;;;;;;;0.76;100.00;96427.59;1014649;29;20020;-73
2023/10/16 00:52:52;;;;;;;0.25;0.25;;;;;;;0.77;100.00;96430.97;1006940;29;20021;-74
2023/10/16 00:53:27;;;;;;;0.15;0.15;;;;;;;0.68;100.00;96420.78;1007604;29;20316;-74
2023/10/16 00:53:58;;;;;;;0.62;0.62;;;;;;;0.74;100.00;96433.94;1004799;29;20029;-74
2023/10/16 00:54:31;;;;;;;2.04;0.64;;;;;;;0.68;100.00;96419.97;1012175;29;20143;-74
2023/10/16 00:55:01;;;;;;;0.10;0.10;;;;;;;0.69;100.00;96434.47;1011065;29;20525;-74
2023/10/16 00:55:32;;;;;;;0.10;0.10;;;;;;;0.66;100.00;96427.91;1015217;29;20063;-73
2023/10/16 00:56:09;;;;;;;0.20;0.20;;;;;;;0.66;100.00;96433.06;1018538;29;20160;-73
2023/10/16 00:56:39;;;;;;;0.54;0.54;;;;;;;0.61;100.00;96430.25;1021632;29;20540;-74
2023/10/16 00:57:10;;;;;;;0.17;0.17;;;;;;;0.69;100.00;96435.28;1023144;28;20042;-74
2023/10/16 00:57:42;;;;;;;0.10;0.10;;;;;;;0.69;100.00;96430.13;1019774;29;20544;-73
2023/10/16 00:58:14;;;;;;;0.26;0.26;;;;;;;0.69;100.00;96432.69;1018959;29;20034;-74
2023/10/16 00:58:48;;;;;;;0.10;0.10;;;;;;;0.68;100.00;96432.91;1007321;29;20072;-74
2023/10/16 00:59:23;;;;;;;1.52;0.72;;;;;;;0.65;100.00;96439.22;1017487;29;20036;-74
2023/10/16 00:59:53;;;;;;;0.00;0.00;;;;;;;0.64;100.00;96429.09;1019801;29;20027;-73
2023/10/16 01:00:25;;;;;;;0.55;0.55;;;;;;;0.64;100.00;96434.25;1023996;28;20575;-74
2023/10/16 01:00:57;;;;;;;0.40;0.40;;;;;;;0.59;100.00;96427.03;1021800;29;20031;-76
2023/10/16 01:01:28;;;;;;;0.00;0.00;;;;;;;0.58;100.00;96425.44;1012846;29;20678;-74
2023/10/16 01:02:08;;;;;;;0.13;0.13;;;;;;;0.55;100.00;96425.81;1014977;29;20500;-74
2023/10/16 01:02:40;;;;;;;0.00;0.00;;;;;;;0.56;100.00;96422.22;1022554;29;20515;-74
2023/10/16 01:03:12;;;;;;;0.38;0.38;;;;;;;0.54;100.00;96415.63;1022755;29;20070;-74
2023/10/16 01:03:44;;;;;;;0.06;0.06;;;;;;;0.55;100.00;96425.00;1007446;29;20032;-72
2023/10/16 01:04:16;;;;;;;0.28;0.28;;;;;;;0.53;100.00;96425.16;1018744;29;20031;-73
2023/10/16 01:04:47;;;;;;;0.32;0.32;;;;;;;0.48;100.00;96414.59;1022624;29;20086;-73
2023/10/16 01:05:23;;;;;;;0.45;0.45;;;;;;;0.52;100.00;96421.00;1014935;29;20040;-73
2023/10/16 01:05:54;;;;;;;0.42;0.34;;;;;;;0.46;100.00;96416.56;1014915;29;20556;-74
2023/10/16 01:06:36;;;;;;;0.70;0.70;;;;;;;0.52;100.00;96421.00;1022757;29;20027;-73
2023/10/16 01:07:08;;;;;;;0.20;0.20;;;;;;;0.50;100.00;96415.22;1026704;28;20106;-74
2023/10/16 01:07:39;;;;;;;0.34;0.34;;;;;;;0.60;100.00;96418.28;1014834;29;20784;-74
2023/10/16 01:08:10;;;;;;;0.00;0.00;;;;;;;0.62;100.00;96416.34;1011317;29;20039;-74
2023/10/16 01:08:45;;;;;;;0.26;0.26;;;;;;;0.57;100.00;96421.28;1007139;29;20570;-74
2023/10/16 01:09:24;;;;;;;0.26;0.26;;;;;;;0.58;100.00;96422.84;1008658;29;20095;-74
2023/10/16 01:09:55;;;;;;;0.10;0.10;;;;;;;0.57;100.00;96416.09;1020646;28;20453;-74
2023/10/16 01:10:25;;;;;;;0.47;0.20;;;;;;;0.54;100.00;96411.31;1021074;29;20262;-74
2023/10/16 01:10:59;;;;;;;0.13;0.13;;;;;;;0.58;100.00;96417.69;1023096;29;20374;-73
2023/10/16 01:11:29;;;;;;;0.22;0.22;;;;;;;0.60;100.00;96418.28;1019774;28;20024;-74
2023/10/16 01:12:00;;;;;;;0.05;0.05;;;;;;;0.54;100.00;96403.56;1019216;29;20490;-74
2023/10/16 01:12:31;;;;;;;0.00;0.00;;;;;;;0.56;100.00;96417.06;1014251;29;20027;-74
2023/10/16 01:13:03;;;;;;;0.60;0.60;;;;;;;0.56;100.00;96422.22;1010764;29;20510;-74
2023/10/16 01:13:33;;;;;;;0.26;0.26;;;;;;;0.47;100.00;96406.06;1010765;29;20398;-74
2023/10/16 01:14:04;;;;;;;0.47;0.47;;;;;;;0.56;100.00;96409.31;1018893;29;20040;-74
2023/10/16 01:14:35;;;;;;;0.02;0.02;;;;;;;0.54;100.00;96411.31;1023475;28;20838;-73
2023/10/16 01:15:08;;;;;;;0.30;0.30;;;;;;;0.54;100.00;96413.06;1021717;28;20031;-74
2023/10/16 01:15:43;;;;;;;0.10;0.10;;;;;;;0.47;100.00;96407.84;1026225;28;20031;-74
2023/10/16 01:16:16;;;;;;;0.44;0.44;;;;;;;0.50;100.00;96407.47;1015163;29;20024;-74
2023/10/16 01:16:47;;;;;;;0.48;0.48;;;;;;;0.44;100.00;96400.47;1023845;28;20123;-73
2023/10/16 01:17:29;;;;;;;0.47;0.47;;;;;;;0.44;100.00;96397.88;1010891;29;20071;-74
2023/10/16 01:18:00;;;;;;;0.26;0.16;;;;;;;0.48;100.00;96412.03;1018709;29;20106;-74
2023/10/16 01:18:31;;;;;;;0.63;0.63;;;;;;;0.54;100.00;96406.13;1009543;29;20036;-74
2023/10/16 01:19:06;;;;;;;0.34;0.34;;;;;;;0.55;100.00;96410.31;1012891;29;20403;-72
2023/10/16 01:19:36;;;;;;;0.16;0.16;;;;;;;0.51;100.00;96406.50;1008543;29;20033;-75
2023/10/16 01:20:08;;;;;;;0.10;0.10;;;;;;;0.56;100.00;96411.91;1015974;29;20021;-74
2023/10/16 01:20:38;;;;;;;0.47;0.47;;;;;;;0.54;100.00;96408.72;1022559;29;20056;-74
2023/10/16 01:21:09;;;;;;;0.00;0.00;;;;;;;0.47;100.00;96403.47;1017920;29;20284;-74
2023/10/16 01:21:39;;;;;;;0.13;0.13;;;;;;;0.53;100.00;96412.25;1017950;29;20509;-74
2023/10/16 01:22:13;;;;;;;0.32;0.32;;;;;;;0.48;100.00;96412.03;1010925;29;20100;-74
2023/10/16 01:22:52;;;;;;;0.10;0.10;;;;;;;0.46;100.00;96411.41;1006980;29;20025;-74
2023/10/16 01:23:23;;;;;;;0.30;0.30;;;;;;;0.46;100.00;96403.66;1015397;29;20127;-73
2023/10/16 01:23:55;;;;;;;0.82;0.65;;;;;;;0.46;100.00;96411.41;1018636;29;20055;-74
2023/10/16 01:24:27;;;;;;;0.10;0.10;;;;;;;0.43;100.00;96409.19;1015094;29;20485;-74
2023/10/16 01:24:59;;;;;;;0.18;0.18;;;;;;;0.42;100.00;96412.75;1008638;29;20040;-74
2023/10/16 01:25:30;;;;;;;0.20;0.20;;;;;;;0.43;100.00;96406.59;1011142;29;20115;-75
2023/10/16 01:26:01;;;;;;;1.65;0.52;;;;;;;0.42;100.00;96399.84;1011770;29;20040;-73
2023/10/16 01:26:32;;;;;;;0.68;0.60;;;;;;;0.43;100.00;96404.00;1023082;29;20027;-72
2023/10/16 01:27:10;;;;;;;0.30;0.30;;;;;;;0.39;100.00;96395.84;1022779;29;20436;-74
2023/10/16 01:27:42;;;;;;;0.24;0.24;;;;;;;0.20;100.00;96373.19;1020104;29;20051;-73
2023/10/16 01:28:15;;;;;;;0.36;0.36;;;;;;;0.39;100.00;96406.16;1017678;29;20160;-74
2023/10/16 01:28:46;;;;;;;0.58;0.56;;;;;;;0.33;100.00;96395.75;1018051;29;20408;-74
2023/10/16 01:29:16;;;;;;;0.10;0.10;;;;;;;0.38;100.00;96401.19;1015507;29;20043;-74
2023/10/16 01:29:47;;;;;;;0.20;0.20;;;;;;;0.40;100.00;96406.97;1015769;29;20509;-74
2023/10/16 01:30:19;;;;;;;3.38;2.33;;;;;;;0.40;100.00;96401.78;1014650;29;20032;-74
2023/10/16 01:30:49;;;;;;;0.78;0.52;;;;;;;0.36;100.00;96395.41;1015350;29;20458;-74
2023/10/16 01:31:21;;;;;;;0.10;0.10;;;;;;;0.40;100.00;96409.53;1022803;29;20579;-73
2023/10/16 01:31:52;;;;;;;3.53;0.75;;;;;;;0.45;100.00;96409.81;1020458;28;20047;-74
2023/10/16 01:32:22;;;;;;;0.70;0.40;;;;;;;0.45;100.00;96404.63;1026464;28;20258;-74
2023/10/16 01:32:53;;;;;;;0.17;0.17;;;;;;;0.39;100.00;96400.19;1022095;29;20062;-74
2023/10/16 01:33:23;;;;;;;0.20;0.20;;;;;;;0.43;100.00;96404.00;1022764;29;20039;-74
2023/10/16 01:33:54;;;;;;;0.10;0.10;;;;;;;0.37;100.00;96399.56;1020082;28;20035;-74
2023/10/16 01:34:25;;;;;;;0.35;0.35;;;;;;;0.41;100.00;96406.00;1018700;29;20024;-74
2023/10/16 01:34:56;;;;;;;0.30;0.30;;;;;;;0.36;100.00;96397.97;1010902;29;20268;-74
2023/10/16 01:35:29;;;;;;;0.55;0.55;;;;;;;0.40;100.00;96401.78;1018994;29;20035;-75
2023/10/16 01:35:59;;;;;;;0.40;0.38;;;;;;;0.40;100.00;96396.63;1014773;29;20064;-74
2023/10/16 01:36:30;;;;;;;0.22;0.22;;;;;;;0.36;100.00;96390.25;1019450;29;20035;-73
2023/10/16 01:37:12;;;;;;;0.70;0.45;;;;;;;0.42;100.00;96400.63;1018655;29;20023;-73
2023/10/16 01:37:46;;;;;;;0.20;0.20;;;;;;;0.43;100.00;96401.44;1020375;29;20064;-73
2023/10/16 01:38:17;;;;;;;0.24;0.24;;;;;;;0.42;100.00;96397.25;1022657;29;20035;-74
2023/10/16 01:38:48;;;;;;;0.20;0.20;;;;;;;0.42;100.00;96389.50;1018613;29;20032;-74
2023/10/16 01:40:25;;;;;;;0.12;0.12;;;;;;;0.37;100.00;96392.66;1018837;29;20443;-74
2023/10/16 01:41:09;;;;;;;0.10;0.10;;;;;;;0.36;100.00;96391.03;1023603;28;20130;-73
2023/10/16 01:41:40;;;;;;;0.10;0.10;;;;;;;0.29;100.00;96384.22;1018623;29;20070;-74
2023/10/16 01:42:11;;;;;;;0.10;0.10;;;;;;;0.34;100.00;96393.00;1020444;29;20068;-73
2023/10/16 01:42:41;;;;;;;0.34;0.34;;;;;;;0.29;100.00;96386.78;1016243;29;20527;-74
2023/10/16 01:43:13;;;;;;;0.10;0.10;;;;;;;0.31;100.00;96390.78;1016719;29;20151;-74
2023/10/16 01:43:44;;;;;;;0.22;0.22;;;;;;;0.34;100.00;96399.97;1018535;29;20104;-74
2023/10/16 01:44:18;;;;;;;0.22;0.22;;;;;;;0.31;100.00;96392.59;1016647;29;20043;-74
2023/10/16 01:44:51;;;;;;;0.92;0.60;;;;;;;0.30;100.00;96396.13;1022471;29;20027;-74
2023/10/16 01:45:22;;;;;;;0.98;0.26;;;;;;;0.31;100.00;96397.75;1023828;28;20922;-73
2023/10/16 01:45:55;;;;;;;3.30;0.65;;;;;;;0.29;100.00;96395.31;1025417;28;20039;-73
2023/10/16 01:46:26;;;;;;;0.00;0.00;;;;;;;0.24;100.00;96392.50;1028958;28;20431;-73
2023/10/16 01:46:56;;;;;;;0.00;0.00;;;;;;;0.30;100.00;96396.13;1025864;28;20041;-74
2023/10/16 01:47:26;;;;;;;0.20;0.20;;;;;;;0.29;100.00;96399.69;1014878;29;20123;-74
2023/10/16 01:47:57;;;;;;;0.40;0.40;;;;;;;0.29;100.00;96397.13;1018542;29;20536;-73
2023/10/16 01:48:28;;;;;;;0.30;0.30;;;;;;;0.27;100.00;96388.75;1018531;29;20040;-74
2023/10/16 01:49:01;;;;;;;0.05;0.05;;;;;;;0.32;100.00;96396.75;1016579;29;20052;-74
2023/10/16 01:49:31;;;;;;;0.24;0.24;;;;;;;0.29;100.00;96389.38;1018115;29;20035;-74
2023/10/16 01:50:02;;;;;;;0.45;0.45;;;;;;;0.21;100.00;96377.38;1015080;29;20052;-73
2023/10/16 01:50:32;;;;;;;1.05;1.05;;;;;;;0.31;100.00;96395.16;1013450;29;20027;-74
2023/10/16 01:51:05;;;;;;;1.10;0.73;;;;;;;0.27;100.00;96392.16;1007118;29;20032;-74
2023/10/16 01:51:37;;;;;;;0.20;0.20;;;;;;;0.25;100.00;96391.50;1011203;29;20562;-74
2023/10/16 01:52:11;;;;;;;0.84;0.84;;;;;;;0.23;100.00;96396.03;1019225;29;20122;-73
2023/10/16 01:52:42;;;;;;;0.10;0.10;;;;;;;0.27;100.00;96396.47;1021993;29;20031;-72
2023/10/16 01:53:15;;;;;;;0.88;0.80;;;;;;;0.29;100.00;96399.69;1023083;29;20046;-74
2023/10/16 01:53:50;;;;;;;0.16;0.16;;;;;;;0.27;100.00;96397.31;1021394;29;20034;-73
2023/10/16 01:54:22;;;;;;;0.42;0.42;;;;;;;0.30;100.00;96406.44;1028345;28;20066;-74
2023/10/16 01:54:53;;;;;;;0.10;0.10;;;;;;;0.27;100.00;96396.47;1025697;28;20062;-74
2023/10/16 01:55:23;;;;;;;0.30;0.30;;;;;;;0.25;100.00;96401.84;1022788;29;20042;-74
2023/10/16 01:55:57;;;;;;;2.00;0.60;;;;;;;0.27;100.00;96394.72;1024867;28;20059;-73
2023/10/16 01:56:27;;;;;;;0.20;0.20;;;;;;;0.27;100.00;96401.63;1019187;29;20055;-73
2023/10/16 01:56:59;;;;;;;0.10;0.10;;;;;;;0.26;100.00;96400.84;1019089;29;20072;-74
2023/10/16 01:57:30;;;;;;;2.62;0.80;;;;;;;0.22;100.00;96392.66;1017853;29;20087;-74
2023/10/16 01:58:03;;;;;;;0.45;0.45;;;;;;;0.22;100.00;96399.63;1015586;29;20047;-75
2023/10/16 01:58:33;;;;;;;2.92;1.52;;;;;;;0.19;100.00;96394.81;1011489;29;20037;-74
2023/10/16 01:59:06;;;;;;;0.20;0.20;;;;;;;0.15;100.00;96386.63;1015341;29;20036;-74
2023/10/16 01:59:41;;;;;;;0.00;0.00;;;;;;;0.17;100.00;96392.44;1016013;29;20028;-75
2023/10/16 02:00:17;;;;;;;0.56;0.56;;;;;;;0.14;100.00;96386.84;1016772;29;20044;-74
2023/10/16 02:00:49;;;;;;;0.06;0.06;;;;;;;0.15;100.00;96396.16;1018621;29;20027;-73
2023/10/16 02:01:19;;;;;;;0.10;0.10;;;;;;;0.15;100.00;96391.00;1019548;29;20034;-74
2023/10/16 02:01:50;;;;;;;0.35;0.35;;;;;;;0.14;100.00;96387.63;1017762;29;20035;-74
2023/10/16 02:02:20;;;;;;;0.68;0.68;;;;;;;0.13;100.00;96385.22;1012697;29;20040;-74
2023/10/16 02:02:51;;;;;;;0.30;0.30;;;;;;;0.13;100.00;96392.94;1018224;29;20409;-74
2023/10/16 02:03:23;;;;;;;0.00;0.00;;;;;;;0.13;100.00;96386.00;1014747;29;20039;-74
2023/10/16 02:03:54;;;;;;;0.10;0.10;;;;;;;0.13;100.00;96380.84;1015305;29;20040;-74
2023/10/16 02:04:24;;;;;;;0.90;0.90;;;;;;;0.13;100.00;96385.22;1014683;29;20044;-74
2023/10/16 02:04:55;;;;;;;0.13;0.13;;;;;;;0.11;100.00;96385.41;1017669;29;20056;-74
2023/10/16 02:05:27;;;;;;;0.43;0.43;;;;;;;0.11;100.00;96379.44;1022812;29;20023;-74
2023/10/16 02:05:58;;;;;;;0.38;0.30;;;;;;;0.09;100.00;96389.94;1018669;29;20083;-74
2023/10/16 02:06:28;;;;;;;0.57;0.57;;;;;;;0.11;100.00;96392.34;1020911;28;20046;-73
2023/10/16 02:07:00;;;;;;;0.00;0.00;;;;;;;0.08;100.00;96378.03;1022541;29;20074;-74
2023/10/16 02:07:33;;;;;;;0.00;0.00;;;;;;;0.09;100.00;96379.63;1018737;29;20490;-74
2023/10/16 02:08:07;;;;;;;0.06;0.06;;;;;;;0.10;100.00;96385.56;1014196;29;20036;-73
2023/10/16 02:08:38;;;;;;;0.54;0.54;;;;;;;0.10;100.00;96383.81;1010599;29;20040;-74
2023/10/16 02:09:13;;;;;;;0.20;0.20;;;;;;;0.04;100.00;96376.00;1010710;29;20051;-75
2023/10/16 02:09:45;;;;;;;0.00;0.00;;;;;;;0.08;100.00;96385.75;1018357;29;20039;-74
2023/10/16 02:10:15;;;;;;;0.54;0.28;;;;;;;0.08;100.00;96388.34;1013717;29;20039;-73
2023/10/16 02:10:46;;;;;;;0.40;0.40;;;;;;;0.09;100.00;96387.34;1012686;29;20024;-73
2023/10/16 02:11:16;;;;;;;0.10;0.10;;;;;;;0.08;100.00;96379.81;1013679;29;20036;-73
2023/10/16 02:11:47;;;;;;;0.03;0.03;;;;;;;0.05;100.00;96377.59;1013991;29;20024;-74
2023/10/16 02:12:17;;;;;;;0.57;0.57;;;;;;;-0.05;100.00;96360.59;1015121;29;20043;-73
2023/10/16 02:12:48;;;;;;;9.20;1.08;;;;;;;0.04;100.00;96381.94;1010312;29;20035;-74
2023/10/16 02:13:19;;;;;;;1.18;1.16;;;;;;;0.02;100.00;96378.75;1013004;29;20795;-74
2023/10/16 02:13:49;;;;;;;0.10;0.10;;;;;;;0.02;100.00;96383.09;1011036;29;20020;-74
2023/10/16 02:14:20;;;;;;;0.00;0.00;;;;;;;0.01;100.00;96376.34;1011030;29;20017;-74
2023/10/16 02:14:50;;;;;;;0.28;0.28;;;;;;;-0.04;100.00;96369.94;1019754;28;20016;-74
2023/10/16 02:15:21;;;;;;;0.10;0.10;;;;;;;0.01;100.00;96381.50;1018713;29;20024;-74
2023/10/16 02:15:51;;;;;;;0.10;0.10;;;;;;;0.01;100.00;96387.47;1018930;29;20524;-73
2023/10/16 02:16:25;;;;;;;0.15;0.15;;;;;;;0.04;100.00;96387.13;1023033;29;20015;-72
2023/10/16 02:16:57;;;;;;;0.20;0.20;;;;;;;-0.05;100.00;96376.06;1011490;29;20021;-74
2023/10/16 02:17:28;;;;;;;0.20;0.20;;;;;;;-0.04;100.00;96379.44;1007864;29;20040;-74
2023/10/16 02:18:00;;;;;;;0.28;0.28;;;;;;;0.00;100.00;96385.88;1014918;29;20067;-74
2023/10/16 02:18:37;;;;;;;0.42;0.42;;;;;;;-0.01;100.00;96390.22;1017249;29;20042;-73
2023/10/16 02:19:12;;;;;;;0.46;0.46;;;;;;;-0.05;100.00;96388.97;1017840;29;20732;-74
2023/10/16 02:19:45;;;;;;;0.10;0.10;;;;;;;-0.03;100.00;96391.41;1020787;29;20031;-73
2023/10/16 02:20:17;;;;;;;0.10;0.10;;;;;;;-0.06;100.00;96392.53;1021916;28;20552;-73
2023/10/16 02:20:49;;;;;;;0.28;0.28;;;;;;;-0.06;100.00;96392.53;1016531;29;20060;-74
2023/10/16 02:21:22;;;;;;;0.22;0.22;;;;;;;-0.12;100.00;96382.16;1013625;29;20437;-74
2023/10/16 02:21:53;;;;;;;0.00;0.00;;;;;;;-0.04;100.00;96394.94;1018895;29;20028;-74
2023/10/16 02:22:24;;;;;;;0.94;0.42;;;;;;;-0.05;100.00;96388.19;1015193;29;20039;-73
2023/10/16 02:22:54;;;;;;;2.45;1.65;;;;;;;0.01;100.00;96392.63;1018406;29;20043;-72
2023/10/16 02:23:29;;;;;;;0.10;0.10;;;;;;;-0.07;100.00;96383.22;1022519;29;20034;-74
2023/10/16 02:24:03;;;;;;;0.36;0.36;;;;;;;-0.01;100.00;96395.38;1019077;29;20106;-74
2023/10/16 02:24:34;;;;;;;0.30;0.30;;;;;;;-0.04;100.00;96389.78;1018332;29;20028;-74
2023/10/16 02:25:08;;;;;;;0.20;0.20;;;;;;;-0.04;100.00;96394.94;1017735;29;20031;-73
2023/10/16 02:25:38;;;;;;;0.10;0.10;;;;;;;-0.05;100.00;96390.75;1016205;29;20101;-74
2023/10/16 02:26:10;;;;;;;0.98;0.90;;;;;;;-0.08;100.00;96388.53;1015997;29;20044;-74
2023/10/16 02:27:02;;;;;;;0.30;0.30;;;;;;;-0.04;100.00;96389.78;1011035;29;20058;-73
2023/10/16 02:27:33;;;;;;;0.02;0.02;;;;;;;-0.08;100.00;96384.16;1011259;29;20054;-73
2023/10/16 02:28:13;;;;;;;0.20;0.20;;;;;;;-0.06;100.00;96389.16;1015114;29;20032;-73
2023/10/16 02:28:46;;;;;;;0.35;0.35;;;;;;;-0.14;100.00;96379.72;1015491;29;20600;-73
2023/10/16 02:29:16;;;;;;;0.00;0.00;;;;;;;-0.05;100.00;96393.34;1018886;29;20446;-73
2023/10/16 02:29:49;;;;;;;0.28;0.28;;;;;;;-0.09;100.00;96381.78;1011262;29;20037;-74
2023/10/16 02:30:53;;;;;;;0.00;0.00;;;;;;;-0.06;100.00;96391.75;1015072;29;20032;-74
2023/10/16 02:31:24;;;;;;;0.45;0.45;;;;;;;-0.06;100.00;96392.53;1020055;29;20035;-73
2023/10/16 02:31:54;;;;;;;0.22;0.20;;;;;;;-0.02;100.00;96392.97;1023509;28;20035;-74
2023/10/16 02:32:25;;;;;;;0.20;0.20;;;;;;;0.00;100.00;96391.03;1019233;29;20267;-74
2023/10/16 02:33:10;;;;;;;0.00;0.00;;;;;;;-0.01;100.00;96386.84;1022438;29;20061;-74
2023/10/16 02:33:45;;;;;;;3.56;0.90;;;;;;;-0.04;100.00;96384.63;1018870;29;20046;-74
2023/10/16 02:34:22;;;;;;;0.12;0.12;;;;;;;-0.02;100.00;96392.97;1025502;28;20491;-74
2023/10/16 02:34:53;;;;;;;0.16;0.16;;;;;;;-0.01;100.00;96392.00;1023463;28;20448;-74
2023/10/16 02:35:23;;;;;;;1.08;0.88;;;;;;;0.00;100.00;96391.03;1020828;29;20043;-74